Time;durP1;ratioP1;P1;durP2;ratioP2;P2;SDS_P1;SDS_P2;PMS_P1;PMS_P2;Temp;Humidity;BMP_temperature;BMP_pressure;BME280_temperature;BME280_humidity;BME280_pressure;Samples;Min_cycle;Max_cycle;Signal;HPM_P1;HPM_P2
2023/07/23 00:02:15;;;;;;;25.07;22.67;;;15.60;99.90;;;;;;5032520;28;20466;-71
2023/07/23 00:04:43;;;;;;;26.37;23.97;;;15.60;99.90;;;;;;5033842;28;20911;-71
2023/07/23 00:07:11;;;;;;;24.87;22.77;;;15.60;99.90;;;;;;5033540;28;20438;-71
2023/07/23 00:09:39;;;;;;;24.73;22.67;;;15.60;99.90;;;;;;5033474;28;20445;-71
2023/07/23 00:12:08;;;;;;;25.23;22.80;;;15.60;99.90;;;;;;5033768;28;20458;-71
2023/07/23 00:14:36;;;;;;;24.27;22.17;;;15.60;99.90;;;;;;5033496;28;20413;-71
2023/07/23 00:17:04;;;;;;;25.47;23.17;;;15.60;99.90;;;;;;5033887;28;20788;-71
2023/07/23 00:19:34;;;;;;;23.77;21.67;;;15.60;99.90;;;;;;5033344;28;20431;-71
2023/07/23 00:22:02;;;;;;;25.20;22.80;;;15.60;99.90;;;;;;5033543;28;20489;-71
2023/07/23 00:24:30;;;;;;;24.63;22.23;;;15.50;99.90;;;;;;5033378;28;20421;-71
2023/07/23 00:26:58;;;;;;;23.80;21.70;;;15.60;99.90;;;;;;5032320;28;20790;-70
2023/07/23 00:29:26;;;;;;;22.10;20.10;;;15.50;99.90;;;;;;5031932;28;20471;-71
2023/07/23 00:31:56;;;;;;;22.60;20.67;;;15.60;99.90;;;;;;5031844;28;20441;-71
2023/07/23 00:34:24;;;;;;;22.30;20.30;;;15.60;99.90;;;;;;5033151;28;20443;-71
2023/07/23 00:36:54;;;;;;;24.07;21.93;;;15.60;99.90;;;;;;5031906;28;20458;-71
2023/07/23 00:39:22;;;;;;;23.33;21.37;;;15.60;99.90;;;;;;5031843;28;20840;-71
2023/07/23 00:41:50;;;;;;;24.40;22.20;;;15.60;99.90;;;;;;5031843;28;20449;-70
2023/07/23 00:44:18;;;;;;;25.23;22.93;;;15.60;99.90;;;;;;5031855;28;20464;-70
2023/07/23 00:46:46;;;;;;;24.97;22.80;;;15.60;99.90;;;;;;5031890;28;20525;-71
2023/07/23 00:49:14;;;;;;;23.37;21.37;;;15.60;99.90;;;;;;5033110;28;20500;-71
2023/07/23 00:51:44;;;;;;;25.90;23.60;;;15.60;99.90;;;;;;5033187;28;20434;-71
2023/07/23 00:54:14;;;;;;;27.23;25.03;;;15.60;99.90;;;;;;5033113;28;20413;-71
2023/07/23 00:56:44;;;;;;;26.27;23.87;;;15.60;99.90;;;;;;5031943;28;20489;-71
2023/07/23 00:59:13;;;;;;;26.70;24.20;;;15.60;99.90;;;;;;5034595;28;20775;-71
2023/07/23 01:01:41;;;;;;;26.50;23.93;;;15.60;99.90;;;;;;5034254;28;20467;-71
2023/07/23 01:04:09;;;;;;;31.03;27.90;;;15.60;99.90;;;;;;5033056;28;20425;-71
2023/07/23 01:06:42;;;;;;;27.27;24.80;;;15.60;99.90;;;;;;5034687;28;20439;-71
2023/07/23 01:09:15;;;;;;;27.93;25.37;;;15.60;99.90;;;;;;5034676;28;20460;-71
2023/07/23 01:11:43;;;;;;;26.50;24.00;;;15.60;99.90;;;;;;5032130;28;20449;-71
2023/07/23 01:14:12;;;;;;;29.27;26.67;;;15.60;99.90;;;;;;5033678;28;20922;-71
2023/07/23 01:16:41;;;;;;;26.53;24.30;;;15.60;99.90;;;;;;5031908;28;20454;-71
2023/07/23 01:19:12;;;;;;;25.87;23.57;;;15.60;99.90;;;;;;5032063;28;20828;-71
2023/07/23 01:21:40;;;;;;;25.43;22.93;;;15.60;99.90;;;;;;5033238;28;20975;-71
2023/07/23 01:24:10;;;;;;;25.00;22.80;;;15.60;99.90;;;;;;5031603;28;20497;-71
2023/07/23 01:26:38;;;;;;;23.53;21.40;;;15.60;99.90;;;;;;5031599;28;20439;-71
2023/07/23 01:29:07;;;;;;;26.23;23.83;;;15.60;99.90;;;;;;5032726;28;20413;-71
2023/07/23 01:31:35;;;;;;;25.13;23.00;;;15.60;99.90;;;;;;5031569;28;20478;-71
2023/07/23 01:34:06;;;;;;;26.30;23.90;;;15.60;99.90;;;;;;5032994;28;20441;-71
2023/07/23 01:36:34;;;;;;;24.60;22.47;;;15.60;99.90;;;;;;5031441;28;21014;-71
2023/07/23 01:39:03;;;;;;;24.37;22.00;;;15.60;99.90;;;;;;5035723;28;20450;-71
2023/07/23 01:41:32;;;;;;;24.20;22.10;;;15.60;99.90;;;;;;5036406;28;20535;-71
2023/07/23 01:44:02;;;;;;;25.93;23.53;;;15.60;99.90;;;;;;5036149;28;20474;-71
2023/07/23 01:46:30;;;;;;;23.50;21.30;;;15.60;99.90;;;;;;5036432;28;20941;-71
2023/07/23 01:48:58;;;;;;;24.70;22.40;;;15.60;99.90;;;;;;5036151;28;20897;-71
2023/07/23 01:51:26;;;;;;;25.57;23.03;;;15.50;99.90;;;;;;5034710;28;20460;-71
2023/07/23 01:53:55;;;;;;;23.87;21.73;;;15.60;99.90;;;;;;5035067;28;20435;-71
2023/07/23 01:56:23;;;;;;;25.77;23.17;;;15.50;99.90;;;;;;5034682;28;20825;-71
2023/07/23 01:58:53;;;;;;;18.50;16.80;;;15.50;99.90;;;;;;5036211;28;20496;-71
2023/07/23 02:01:21;;;;;;;23.67;21.67;;;15.50;99.90;;;;;;5035005;28;20829;-71
2023/07/23 02:03:49;;;;;;;26.23;23.93;;;15.50;99.90;;;;;;5035953;28;20438;-70
2023/07/23 02:06:18;;;;;;;26.30;23.90;;;15.50;99.90;;;;;;5034439;28;20430;-71
2023/07/23 02:08:46;;;;;;;25.63;23.30;;;15.50;99.90;;;;;;5034479;28;20461;-71
2023/07/23 02:11:14;;;;;;;27.80;25.43;;;15.50;99.90;;;;;;5034083;28;20458;-71
2023/07/23 02:13:42;;;;;;;31.03;28.00;;;15.50;99.90;;;;;;5035507;28;20435;-71
2023/07/23 02:16:18;;;;;;;28.47;26.20;;;15.50;99.90;;;;;;5034271;28;20557;-71
2023/07/23 02:18:46;;;;;;;25.17;22.70;;;15.50;99.90;;;;;;5034250;28;20470;-71
2023/07/23 02:21:14;;;;;;;23.03;20.97;;;15.50;99.90;;;;;;5034224;28;20532;-71
2023/07/23 02:23:44;;;;;;;24.47;22.47;;;15.60;99.90;;;;;;5035397;28;20449;-71
2023/07/23 02:26:12;;;;;;;24.73;22.43;;;15.60;99.90;;;;;;5034462;28;20475;-71
2023/07/23 02:28:43;;;;;;;22.97;20.93;;;15.60;99.90;;;;;;5034955;28;20447;-71
2023/07/23 02:31:11;;;;;;;22.50;20.50;;;15.50;99.90;;;;;;5035308;28;20544;-71
2023/07/23 02:33:41;;;;;;;23.47;21.40;;;15.50;99.90;;;;;;5033923;28;20892;-71
2023/07/23 02:36:10;;;;;;;24.83;22.73;;;15.50;99.90;;;;;;5033944;28;20429;-71
2023/07/23 02:38:38;;;;;;;22.93;21.03;;;15.50;99.90;;;;;;5035382;28;20471;-71
2023/07/23 02:41:08;;;;;;;22.50;20.57;;;15.50;99.90;;;;;;5033816;28;20437;-70
2023/07/23 02:43:36;;;;;;;22.53;20.60;;;15.50;99.90;;;;;;5034926;28;20443;-71
2023/07/23 02:46:04;;;;;;;23.87;21.73;;;15.60;99.90;;;;;;5033772;28;20534;-71
2023/07/23 02:48:32;;;;;;;24.07;21.77;;;15.50;99.90;;;;;;5034678;28;20411;-71
2023/07/23 02:51:02;;;;;;;23.30;21.17;;;15.50;99.90;;;;;;5034555;28;20478;-71
2023/07/23 02:53:30;;;;;;;23.97;21.77;;;15.50;99.90;;;;;;5033991;28;20428;-71
2023/07/23 02:55:58;;;;;;;23.13;21.17;;;15.50;99.90;;;;;;5036056;28;20435;-70
2023/07/23 02:58:26;;;;;;;21.47;19.63;;;15.50;99.90;;;;;;5033540;28;20529;-71
2023/07/23 03:00:56;;;;;;;24.30;21.93;;;15.50;99.90;;;;;;5033377;28;20528;-71
2023/07/23 03:03:25;;;;;;;22.90;20.90;;;15.50;99.90;;;;;;5034163;28;20969;-71
2023/07/23 03:05:53;;;;;;;22.10;20.10;;;15.50;99.90;;;;;;5033401;28;20451;-71
2023/07/23 03:08:22;;;;;;;22.63;20.40;;;15.50;99.90;;;;;;5033319;28;20493;-71
2023/07/23 03:10:50;;;;;;;22.77;20.53;;;15.50;99.90;;;;;;5033409;28;20844;-71
2023/07/23 03:13:19;;;;;;;20.43;18.73;;;15.50;99.90;;;;;;5033279;28;20474;-71
2023/07/23 03:15:47;;;;;;;23.00;21.00;;;15.50;99.90;;;;;;5034408;28;20425;-71
2023/07/23 03:18:15;;;;;;;21.07;19.17;;;15.50;99.90;;;;;;5033113;28;20439;-71
2023/07/23 03:20:43;;;;;;;21.50;19.47;;;15.50;99.90;;;;;;5033370;28;20506;-71
2023/07/23 03:23:12;;;;;;;20.60;18.60;;;15.50;99.90;;;;;;5033082;28;20526;-71
2023/07/23 03:25:41;;;;;;;21.87;19.97;;;15.50;99.90;;;;;;5034273;28;20508;-71
2023/07/23 03:28:09;;;;;;;20.10;18.03;;;15.50;99.90;;;;;;5033163;28;20446;-71
2023/07/23 03:30:38;;;;;;;20.60;18.70;;;15.50;99.90;;;;;;5032805;28;20454;-71
2023/07/23 03:33:06;;;;;;;20.40;18.43;;;15.50;99.90;;;;;;5034108;28;20406;-71
2023/07/23 03:35:34;;;;;;;19.97;17.97;;;15.50;99.90;;;;;;5034284;28;20445;-71
2023/07/23 03:38:02;;;;;;;20.97;18.90;;;15.50;99.90;;;;;;5034077;28;20463;-71
2023/07/23 03:40:30;;;;;;;20.13;18.50;;;15.50;99.90;;;;;;5032591;28;20441;-71
2023/07/23 03:43:00;;;;;;;19.83;18.03;;;15.50;99.90;;;;;;5032842;28;20426;-71
2023/07/23 03:45:28;;;;;;;20.87;18.87;;;15.50;99.90;;;;;;5033925;28;20413;-71
2023/07/23 03:47:56;;;;;;;19.77;17.97;;;15.50;99.90;;;;;;5032682;28;20440;-71
2023/07/23 03:50:25;;;;;;;19.90;17.97;;;15.50;99.90;;;;;;5032365;28;20525;-71
2023/07/23 03:52:54;;;;;;;18.97;17.27;;;15.50;99.90;;;;;;5032474;28;21006;-71
2023/07/23 03:55:22;;;;;;;19.70;18.00;;;15.50;99.90;;;;;;5032616;28;20512;-70
2023/07/23 03:57:50;;;;;;;18.60;16.80;;;15.50;99.90;;;;;;5033757;28;20466;-70
2023/07/23 04:00:20;;;;;;;19.80;18.07;;;15.50;99.90;;;;;;5032125;28;21010;-70
2023/07/23 04:02:48;;;;;;;21.00;19.30;;;15.60;99.90;;;;;;5033910;28;20409;-70
2023/07/23 04:05:16;;;;;;;19.00;17.40;;;15.60;99.90;;;;;;5033868;28;20413;-70
2023/07/23 04:07:44;;;;;;;19.90;17.97;;;15.60;99.90;;;;;;5032355;28;20421;-70
2023/07/23 04:10:12;;;;;;;19.70;17.77;;;15.50;99.90;;;;;;5033368;28;20520;-70
2023/07/23 04:12:40;;;;;;;19.83;18.03;;;15.60;99.90;;;;;;5032146;28;20608;-70
2023/07/23 04:15:09;;;;;;;20.40;18.40;;;15.60;99.90;;;;;;5033543;28;20506;-70
2023/07/23 04:17:38;;;;;;;19.00;17.40;;;15.60;99.90;;;;;;5033647;28;20482;-70
2023/07/23 04:20:08;;;;;;;19.87;17.83;;;15.60;99.90;;;;;;5032056;28;20534;-70
2023/07/23 04:22:36;;;;;;;19.87;17.97;;;15.60;99.90;;;;;;5032130;28;20493;-70
2023/07/23 04:25:04;;;;;;;20.63;18.57;;;15.60;99.90;;;;;;5033292;28;20505;-70
2023/07/23 04:27:33;;;;;;;20.07;18.27;;;15.60;99.90;;;;;;5033598;28;20439;-70
2023/07/23 04:30:02;;;;;;;19.33;17.50;;;15.60;99.90;;;;;;5033375;28;20924;-70
2023/07/23 04:32:30;;;;;;;18.00;16.50;;;15.60;99.90;;;;;;5031960;28;20821;-70
2023/07/23 04:34:59;;;;;;;16.93;15.33;;;15.60;99.90;;;;;;5033530;28;20414;-70
2023/07/23 04:37:28;;;;;;;18.00;16.50;;;15.60;99.90;;;;;;5032011;28;20479;-70
2023/07/23 04:39:56;;;;;;;17.73;16.17;;;15.60;99.90;;;;;;5033474;28;20435;-70
2023/07/23 04:42:24;;;;;;;17.47;16.07;;;15.60;99.90;;;;;;5033616;28;20435;-70
2023/07/23 04:44:52;;;;;;;16.90;15.33;;;15.60;99.90;;;;;;5033162;28;20544;-70
2023/07/23 04:47:20;;;;;;;16.37;14.87;;;15.60;99.90;;;;;;5033915;28;20509;-70
2023/07/23 04:49:48;;;;;;;17.10;15.40;;;15.60;99.90;;;;;;5033334;28;20600;-70
2023/07/23 04:52:19;;;;;;;17.63;16.00;;;15.60;99.90;;;;;;5033358;28;20823;-70
2023/07/23 04:54:47;;;;;;;17.80;16.00;;;15.60;99.90;;;;;;5033794;28;20880;-70
2023/07/23 04:57:15;;;;;;;16.47;14.97;;;15.60;99.90;;;;;;5033310;28;20811;-70
2023/07/23 04:59:43;;;;;;;16.77;15.17;;;15.60;99.90;;;;;;5033154;28;20409;-70
2023/07/23 05:02:11;;;;;;;18.10;16.30;;;15.60;99.90;;;;;;5033256;28;20534;-70
2023/07/23 05:04:39;;;;;;;16.23;14.83;;;15.60;99.90;;;;;;5033008;28;20435;-70
2023/07/23 05:07:07;;;;;;;17.47;15.77;;;15.60;99.90;;;;;;5032968;28;20436;-70
2023/07/23 05:09:37;;;;;;;17.07;15.47;;;15.60;99.90;;;;;;5032892;28;20439;-70
2023/07/23 05:12:06;;;;;;;16.83;15.33;;;15.60;99.90;;;;;;5033250;28;20809;-70
2023/07/23 05:14:35;;;;;;;17.40;15.90;;;15.60;99.90;;;;;;5037348;28;20406;-70
2023/07/23 05:17:03;;;;;;;16.90;15.40;;;15.60;99.90;;;;;;5037099;28;20442;-70
2023/07/23 05:19:35;;;;;;;16.80;15.20;;;15.60;99.90;;;;;;5036618;28;20415;-70
2023/07/23 05:22:03;;;;;;;17.33;15.70;;;15.60;99.90;;;;;;5036454;28;20528;-70
2023/07/23 05:24:31;;;;;;;15.70;14.20;;;15.60;99.90;;;;;;5036600;28;20470;-70
2023/07/23 05:27:01;;;;;;;16.20;14.57;;;15.60;99.90;;;;;;5036441;28;20478;-70
2023/07/23 05:29:29;;;;;;;17.40;15.80;;;15.60;99.90;;;;;;5036592;28;20409;-70
2023/07/23 05:31:57;;;;;;;16.20;14.70;;;15.70;99.90;;;;;;5037248;28;20513;-70
2023/07/23 05:34:25;;;;;;;16.53;14.97;;;15.70;99.90;;;;;;5036353;28;20453;-70
2023/07/23 05:36:53;;;;;;;16.87;15.23;;;15.70;99.90;;;;;;5036259;28;20915;-70
2023/07/23 05:39:21;;;;;;;17.23;15.47;;;15.70;99.90;;;;;;5036352;28;20417;-70
2023/07/23 05:41:49;;;;;;;15.37;13.93;;;15.70;99.90;;;;;;5036674;28;20451;-70
2023/07/23 05:44:19;;;;;;;15.47;14.17;;;15.70;99.90;;;;;;5037091;28;20950;-70
2023/07/23 05:46:47;;;;;;;16.53;14.83;;;15.70;99.90;;;;;;5036060;28;20446;-70
2023/07/23 05:49:15;;;;;;;13.87;12.60;;;15.70;99.90;;;;;;5035987;28;20471;-70
2023/07/23 05:51:44;;;;;;;15.43;13.83;;;15.70;99.90;;;;;;5035850;28;20452;-70
2023/07/23 05:54:12;;;;;;;16.73;15.00;;;15.70;99.90;;;;;;5036301;28;20418;-70
2023/07/23 05:56:40;;;;;;;14.73;13.33;;;15.70;99.90;;;;;;5036137;28;20452;-70
2023/07/23 05:59:08;;;;;;;16.23;14.73;;;15.70;99.90;;;;;;5036174;28;20405;-70
2023/07/23 06:01:37;;;;;;;15.63;14.23;;;15.70;99.90;;;;;;5036685;28;20778;-70
2023/07/23 06:04:05;;;;;;;15.67;13.47;;;15.80;99.90;;;;;;5035861;28;20929;-70
2023/07/23 06:06:33;;;;;;;14.77;13.30;;;15.80;99.90;;;;;;5036016;28;20439;-70
2023/07/23 06:09:02;;;;;;;14.97;13.07;;;15.80;99.90;;;;;;5035723;28;20413;-70
2023/07/23 06:11:31;;;;;;;14.10;12.80;;;15.80;99.90;;;;;;5035764;28;20896;-70
2023/07/23 06:14:06;;;;;;;14.93;13.47;;;15.80;99.90;;;;;;5035863;28;20456;-70
2023/07/23 06:16:34;;;;;;;14.20;12.83;;;15.90;99.90;;;;;;5035686;28;20410;-69
2023/07/23 06:19:03;;;;;;;13.30;12.10;;;15.90;99.90;;;;;;5035606;28;20449;-70
2023/07/23 06:21:32;;;;;;;14.17;12.43;;;15.90;99.90;;;;;;5035418;28;20469;-70
2023/07/23 06:24:00;;;;;;;14.20;12.80;;;16.00;99.90;;;;;;5035870;28;20410;-70
2023/07/23 06:26:28;;;;;;;14.20;12.90;;;16.00;99.90;;;;;;5035422;28;20417;-70
2023/07/23 06:28:56;;;;;;;14.13;12.43;;;16.00;99.90;;;;;;5035330;28;20437;-70
2023/07/23 06:31:24;;;;;;;14.13;12.73;;;16.00;99.90;;;;;;5035481;28;20512;-70
2023/07/23 06:33:52;;;;;;;15.03;13.57;;;16.00;99.90;;;;;;5035707;28;20441;-70
2023/07/23 06:36:22;;;;;;;13.63;12.23;;;16.10;99.90;;;;;;5035783;28;20500;-70
2023/07/23 06:38:50;;;;;;;15.20;13.87;;;16.10;99.90;;;;;;5035305;28;20786;-70
2023/07/23 06:41:18;;;;;;;13.40;12.30;;;16.10;99.90;;;;;;5035411;28;20999;-70
2023/07/23 06:43:47;;;;;;;13.03;11.80;;;16.10;99.90;;;;;;5035181;28;21002;-70
2023/07/23 06:46:18;;;;;;;14.80;13.00;;;16.10;99.90;;;;;;5035278;28;20406;-70
2023/07/23 06:48:46;;;;;;;14.10;12.60;;;16.20;99.90;;;;;;5033789;28;20421;-70
2023/07/23 06:51:14;;;;;;;14.47;12.37;;;16.20;99.90;;;;;;5033556;28;20777;-70
2023/07/23 06:53:45;;;;;;;13.13;11.93;;;16.20;99.90;;;;;;5034757;28;20797;-70
2023/07/23 06:56:13;;;;;;;15.30;12.50;;;16.20;99.90;;;;;;5034829;28;20445;-70
2023/07/23 06:58:41;;;;;;;13.83;12.57;;;16.20;99.90;;;;;;5033999;28;20451;-70
2023/07/23 07:01:09;;;;;;;13.83;12.43;;;16.20;99.90;;;;;;5035450;28;20455;-69
2023/07/23 07:03:38;;;;;;;14.93;12.90;;;16.30;99.90;;;;;;5035161;28;20534;-69
2023/07/23 07:06:06;;;;;;;13.90;12.50;;;16.30;99.90;;;;;;5034868;28;20406;-69
2023/07/23 07:08:34;;;;;;;13.13;11.90;;;16.30;99.90;;;;;;5034915;28;20451;-70
2023/07/23 07:11:09;;;;;;;13.63;12.17;;;16.30;99.90;;;;;;5035180;28;21063;-69
2023/07/23 07:13:38;;;;;;;12.60;11.40;;;16.40;99.90;;;;;;5034995;28;20425;-69
2023/07/23 07:16:06;;;;;;;14.03;12.63;;;16.40;99.90;;;;;;5035250;28;20507;-69
2023/07/23 07:18:34;;;;;;;13.53;12.33;;;16.40;99.90;;;;;;5035276;28;20917;-70
2023/07/23 07:21:02;;;;;;;17.33;15.53;;;16.50;99.90;;;;;;5034872;28;20451;-70
2023/07/23 07:23:32;;;;;;;16.67;14.90;;;16.50;99.90;;;;;;5035438;28;20431;-69
2023/07/23 07:26:01;;;;;;;16.47;14.87;;;16.50;99.90;;;;;;5035179;28;20411;-70
2023/07/23 07:28:33;;;;;;;17.23;15.43;;;16.50;99.90;;;;;;5034582;28;20439;-69
2023/07/23 07:31:03;;;;;;;15.07;13.57;;;16.60;99.90;;;;;;5035203;28;20798;-69
2023/07/23 07:33:31;;;;;;;20.60;16.40;;;16.60;99.90;;;;;;5034652;28;20452;-69
2023/07/23 07:36:01;;;;;;;18.13;14.10;;;16.60;99.90;;;;;;5035000;28;20431;-69
2023/07/23 07:38:29;;;;;;;13.70;12.30;;;16.70;99.90;;;;;;5034790;28;20776;-69
2023/07/23 07:40:58;;;;;;;15.90;14.30;;;16.70;99.90;;;;;;5033577;28;20468;-69
2023/07/23 07:43:26;;;;;;;18.57;16.20;;;16.70;99.90;;;;;;5034756;28;20410;-69
2023/07/23 07:45:59;;;;;;;14.10;12.80;;;16.70;99.90;;;;;;5034499;28;20406;-69
2023/07/23 07:48:29;;;;;;;15.73;14.23;;;16.80;99.90;;;;;;5035504;28;20419;-69
2023/07/23 07:50:59;;;;;;;15.93;13.97;;;16.80;99.90;;;;;;5034595;28;20426;-69
2023/07/23 07:53:27;;;;;;;19.87;17.80;;;16.80;99.90;;;;;;5034854;28;20507;-69
2023/07/23 07:55:56;;;;;;;16.00;14.40;;;16.90;99.90;;;;;;5034317;28;20435;-70
2023/07/23 07:58:25;;;;;;;13.77;12.40;;;16.90;99.90;;;;;;5034546;28;20451;-69
2023/07/23 08:00:56;;;;;;;15.17;13.67;;;16.90;99.90;;;;;;5034683;28;20532;-70
2023/07/23 08:03:26;;;;;;;13.23;11.60;;;17.00;99.90;;;;;;5034411;28;20428;-70
2023/07/23 08:05:56;;;;;;;17.50;15.80;;;17.00;99.90;;;;;;5034320;28;20431;-70
2023/07/23 08:08:26;;;;;;;13.07;11.30;;;17.00;99.90;;;;;;5034003;28;20443;-71
2023/07/23 08:10:56;;;;;;;14.27;12.70;;;17.00;99.90;;;;;;5033810;28;20467;-71
2023/07/23 08:13:24;;;;;;;14.53;13.00;;;17.10;99.90;;;;;;5034063;28;20448;-71
2023/07/23 08:15:53;;;;;;;14.13;12.83;;;17.20;99.90;;;;;;5033466;28;20418;-71
2023/07/23 08:18:25;;;;;;;13.23;11.83;;;17.20;99.90;;;;;;5034083;28;20442;-71
2023/07/23 08:20:54;;;;;;;13.00;11.80;;;17.30;99.90;;;;;;5033774;28;20462;-71
2023/07/23 08:23:25;;;;;;;13.20;11.90;;;17.30;99.90;;;;;;5032617;28;20928;-71
2023/07/23 08:25:56;;;;;;;12.90;11.63;;;17.30;99.90;;;;;;5033482;28;20903;-71
2023/07/23 08:28:29;;;;;;;13.57;12.37;;;17.40;99.90;;;;;;5033595;28;20433;-70
2023/07/23 08:30:57;;;;;;;14.50;11.07;;;17.40;99.90;;;;;;5033490;28;20434;-71
2023/07/23 08:33:29;;;;;;;12.53;11.33;;;17.40;99.90;;;;;;5033810;28;20962;-71
2023/07/23 08:35:58;;;;;;;13.30;12.07;;;17.50;99.90;;;;;;5033707;28;20430;-71
2023/07/23 08:38:26;;;;;;;12.40;11.13;;;17.50;99.90;;;;;;5032329;28;20425;-69
2023/07/23 08:41:00;;;;;;;13.70;12.30;;;17.60;99.90;;;;;;5033689;28;20516;-69
2023/07/23 08:43:49;;;;;;;13.47;12.17;;;17.60;99.90;;;;;;5034388;28;20412;-69
2023/07/23 08:46:22;;;;;;;13.33;11.33;;;17.70;99.90;;;;;;5033866;28;20860;-68
2023/07/23 08:49:06;;;;;;;12.80;9.90;;;17.70;99.90;;;;;;5036734;28;20931;-68
2023/07/23 08:51:40;;;;;;;12.57;10.90;;;17.70;99.90;;;;;;5037351;28;20804;-69
2023/07/23 08:54:10;;;;;;;12.63;11.30;;;17.80;99.90;;;;;;5038118;28;20832;-69
2023/07/23 08:56:40;;;;;;;12.43;11.23;;;17.80;99.90;;;;;;5037811;28;20438;-69
2023/07/23 08:59:12;;;;;;;11.40;10.43;;;17.90;99.90;;;;;;5037222;28;20459;-70
2023/07/23 09:01:42;;;;;;;12.57;11.27;;;17.90;99.90;;;;;;5037248;28;20952;-70
2023/07/23 09:04:13;;;;;;;12.03;10.93;;;17.90;99.90;;;;;;5037004;28;20393;-69
2023/07/23 09:06:43;;;;;;;18.60;11.27;;;17.90;99.90;;;;;;5037385;28;20439;-69
2023/07/23 09:09:12;;;;;;;11.40;10.20;;;18.00;99.90;;;;;;5037860;28;20439;-70
2023/07/23 09:11:41;;;;;;;12.67;11.13;;;18.00;99.90;;;;;;5038229;28;20561;-70
2023/07/23 09:14:10;;;;;;;12.20;10.73;;;18.10;99.90;;;;;;5039086;28;20482;-70
2023/07/23 09:16:40;;;;;;;12.37;11.17;;;18.10;99.90;;;;;;5036351;28;20453;-70
2023/07/23 09:19:11;;;;;;;12.47;10.83;;;18.20;99.90;;;;;;5038418;28;20462;-70
2023/07/23 09:21:40;;;;;;;11.83;10.63;;;18.20;99.90;;;;;;5037807;28;20437;-70
2023/07/23 09:24:14;;;;;;;13.93;12.30;;;18.20;99.90;;;;;;5037943;28;20928;-70
2023/07/23 09:26:43;;;;;;;12.27;11.00;;;18.20;99.90;;;;;;5038053;28;20442;-70
2023/07/23 09:29:13;;;;;;;15.30;11.47;;;18.30;99.90;;;;;;5038211;28;20435;-70
2023/07/23 09:31:44;;;;;;;13.10;11.90;;;18.30;99.90;;;;;;5037833;28;20982;-71
2023/07/23 09:34:20;;;;;;;11.83;10.80;;;18.30;99.90;;;;;;5038328;28;20553;-71
2023/07/23 09:36:53;;;;;;;12.63;11.43;;;18.30;99.90;;;;;;5038213;28;20450;-71
2023/07/23 09:39:26;;;;;;;11.57;10.23;;;18.30;99.90;;;;;;5037747;28;20428;-70
2023/07/23 09:42:02;;;;;;;13.63;11.53;;;18.20;99.90;;;;;;5037181;28;21022;-71
2023/07/23 09:44:30;;;;;;;11.90;10.80;;;18.20;99.90;;;;;;5037548;28;20415;-71
2023/07/23 09:46:59;;;;;;;12.57;11.23;;;18.20;99.90;;;;;;5037672;28;20920;-71
2023/07/23 09:49:31;;;;;;;13.07;11.67;;;18.10;99.90;;;;;;5037067;28;20439;-71
2023/07/23 09:52:03;;;;;;;13.87;12.10;;;18.10;99.90;;;;;;5036985;28;20463;-71
2023/07/23 09:54:31;;;;;;;13.30;11.90;;;18.10;99.90;;;;;;5037726;28;20818;-71
2023/07/23 09:57:00;;;;;;;13.70;12.40;;;18.10;99.90;;;;;;5037242;28;20405;-72
2023/07/23 09:59:32;;;;;;;13.20;11.80;;;18.10;99.90;;;;;;5036436;28;20474;-72
2023/07/23 10:02:02;;;;;;;13.83;12.37;;;18.10;99.90;;;;;;5037313;28;20434;-73
2023/07/23 10:04:33;;;;;;;14.57;11.53;;;18.10;99.90;;;;;;5034612;28;20454;-71
2023/07/23 10:07:02;;;;;;;13.07;11.93;;;18.10;99.90;;;;;;5036058;28;20844;-71
2023/07/23 10:09:31;;;;;;;13.43;12.20;;;18.00;99.90;;;;;;5035711;28;20968;-71
2023/07/23 10:11:59;;;;;;;11.70;10.70;;;18.00;99.90;;;;;;5035837;28;20992;-71
2023/07/23 10:14:27;;;;;;;12.60;11.50;;;18.00;99.90;;;;;;5035457;28;20452;-71
2023/07/23 10:16:56;;;;;;;12.80;11.70;;;18.00;99.90;;;;;;5035545;28;20443;-71
2023/07/23 10:19:24;;;;;;;12.47;11.37;;;18.10;99.90;;;;;;5035562;28;20435;-71
2023/07/23 10:21:54;;;;;;;12.50;11.20;;;18.10;99.90;;;;;;5035591;28;20458;-73
2023/07/23 10:24:22;;;;;;;12.53;11.33;;;18.10;99.90;;;;;;5035419;28;20522;-73
2023/07/23 10:26:52;;;;;;;14.27;12.87;;;18.10;99.90;;;;;;5035645;28;20791;-73
2023/07/23 10:29:21;;;;;;;12.77;11.50;;;18.10;99.90;;;;;;5035506;28;20490;-73
2023/07/23 10:31:56;;;;;;;12.80;11.60;;;18.10;99.90;;;;;;5035520;28;20483;-73
2023/07/23 10:34:43;;;;;;;12.80;11.50;;;18.00;99.90;;;;;;5033914;28;20462;-73
2023/07/23 10:37:14;;;;;;;14.03;11.00;;;18.00;99.90;;;;;;5035661;28;20838;-73
2023/07/23 10:39:44;;;;;;;13.40;12.10;;;18.10;99.90;;;;;;5035279;28;20434;-73
2023/07/23 10:42:37;;;;;;;13.47;12.17;;;18.10;99.90;;;;;;5035120;28;20477;-72
2023/07/23 10:45:15;;;;;;;11.97;10.87;;;18.10;99.90;;;;;;5035082;28;20505;-72
2023/07/23 10:47:48;;;;;;;11.50;10.40;;;18.10;99.90;;;;;;5035337;28;20895;-73
2023/07/23 10:50:18;;;;;;;13.30;12.00;;;18.10;99.90;;;;;;5035497;28;20534;-72
2023/07/23 10:52:49;;;;;;;12.43;11.23;;;18.10;99.90;;;;;;5034962;28;21039;-72
2023/07/23 10:55:33;;;;;;;11.67;10.77;;;18.10;99.90;;;;;;5034834;28;20455;-73
2023/07/23 10:58:03;;;;;;;13.23;11.93;;;18.20;99.90;;;;;;5035222;28;20415;-73
2023/07/23 11:00:32;;;;;;;13.17;11.27;;;18.20;99.90;;;;;;5034862;28;20459;-73
2023/07/23 11:03:00;;;;;;;12.50;11.30;;;18.20;99.90;;;;;;5033679;28;20823;-73
2023/07/23 11:05:39;;;;;;;11.57;10.47;;;18.20;99.90;;;;;;5034754;28;20801;-73
2023/07/23 11:08:16;;;;;;;12.53;11.43;;;18.20;99.90;;;;;;5035255;28;20823;-73
2023/07/23 11:10:56;;;;;;;12.07;10.97;;;18.20;99.90;;;;;;5033924;28;20566;-73
2023/07/23 11:13:29;;;;;;;11.33;10.30;;;18.20;99.90;;;;;;5033328;28;20944;-73
2023/07/23 11:15:57;;;;;;;13.27;11.97;;;18.20;99.90;;;;;;5034377;28;20927;-73
2023/07/23 11:18:26;;;;;;;12.03;11.03;;;18.20;99.90;;;;;;5034451;28;20471;-73
2023/07/23 11:20:56;;;;;;;13.60;12.17;;;18.20;99.90;;;;;;5034545;28;20451;-73
2023/07/23 11:23:26;;;;;;;11.90;10.90;;;18.20;99.90;;;;;;5034503;28;20418;-73
2023/07/23 11:25:56;;;;;;;13.33;12.13;;;18.10;99.90;;;;;;5034390;28;20401;-73
2023/07/23 11:28:25;;;;;;;11.07;10.17;;;18.10;99.90;;;;;;5034482;28;20534;-73
2023/07/23 11:30:56;;;;;;;11.90;10.90;;;18.10;99.90;;;;;;5033996;28;20458;-73
2023/07/23 11:33:29;;;;;;;12.97;11.63;;;18.10;99.90;;;;;;5032779;28;20463;-73
2023/07/23 11:35:57;;;;;;;10.43;9.37;;;18.10;99.90;;;;;;5034241;28;20465;-74
2023/07/23 11:38:31;;;;;;;10.90;9.00;;;18.10;99.90;;;;;;5034170;28;20459;-72
2023/07/23 11:41:00;;;;;;;10.10;9.27;;;18.10;99.90;;;;;;5034330;28;20466;-73
2023/07/23 11:43:29;;;;;;;9.23;8.20;;;18.10;99.90;;;;;;5032747;28;20520;-70
2023/07/23 11:45:57;;;;;;;10.03;7.77;;;18.10;99.90;;;;;;5034456;28;20439;-70
2023/07/23 11:48:30;;;;;;;9.40;8.53;;;18.20;99.90;;;;;;5034136;28;20427;-70
2023/07/23 11:51:00;;;;;;;7.77;7.07;;;18.20;99.90;;;;;;5034158;28;20509;-70
2023/07/23 11:53:34;;;;;;;7.17;6.60;;;18.20;99.90;;;;;;5034023;28;20454;-70
2023/07/23 11:56:08;;;;;;;7.53;6.80;;;18.20;99.90;;;;;;5032477;28;20824;-70
2023/07/23 11:58:37;;;;;;;7.83;7.23;;;18.20;99.90;;;;;;5034151;28;20477;-70
2023/07/23 12:01:07;;;;;;;7.30;6.70;;;18.20;99.90;;;;;;5033831;28;20440;-70
2023/07/23 12:03:38;;;;;;;7.57;6.87;;;18.20;99.90;;;;;;5033680;28;20466;-70
2023/07/23 12:06:07;;;;;;;7.13;6.40;;;18.30;99.90;;;;;;5033952;28;20419;-70
2023/07/23 12:08:38;;;;;;;8.60;7.90;;;18.30;99.90;;;;;;5034174;28;20446;-71
2023/07/23 12:11:10;;;;;;;8.63;8.03;;;18.30;99.90;;;;;;5032725;28;20489;-70
2023/07/23 12:13:46;;;;;;;10.83;10.03;;;18.40;99.90;;;;;;5033379;28;20438;-70
2023/07/23 12:16:18;;;;;;;10.63;9.80;;;18.40;99.90;;;;;;5033404;28;20473;-71
2023/07/23 12:18:47;;;;;;;10.97;10.13;;;18.40;99.90;;;;;;5033580;28;20419;-71
2023/07/23 12:21:21;;;;;;;11.97;10.97;;;18.40;99.90;;;;;;5031937;28;20502;-70
2023/07/23 12:23:51;;;;;;;10.60;9.63;;;18.40;99.90;;;;;;5033613;28;20415;-70
2023/07/23 12:26:19;;;;;;;10.33;9.57;;;18.40;99.90;;;;;;5037215;28;20514;-70
2023/07/23 12:28:47;;;;;;;11.90;10.90;;;18.40;99.90;;;;;;5035281;28;20452;-71
2023/07/23 12:31:15;;;;;;;11.30;10.50;;;18.50;99.90;;;;;;5036554;28;20562;-71
2023/07/23 12:33:43;;;;;;;11.27;10.40;;;18.50;99.90;;;;;;5035444;28;20442;-70
2023/07/23 12:36:11;;;;;;;12.07;11.17;;;18.50;99.90;;;;;;5033066;28;20445;-70
2023/07/23 12:38:39;;;;;;;12.23;11.27;;;18.60;99.90;;;;;;5034525;28;20494;-70
2023/07/23 12:41:09;;;;;;;10.93;10.03;;;18.60;99.90;;;;;;5033715;28;20521;-70